sensor_id;sensor_type;location;lat;lon;timestamp;P1;durP1;ratioP1;P2;durP2;ratioP2
21987;SDS011;11158;53.404;-1.510;2023-03-23T00:01:09;3.63;;;1.00;;
21987;SDS011;11158;53.404;-1.510;2023-03-23T00:03:55;4.55;;;0.95;;
21987;SDS011;11158;53.404;-1.510;2023-03-23T00:06:41;3.85;;;1.40;;
21987;SDS011;11158;53.404;-1.510;2023-03-23T00:09:26;6.13;;;1.67;;
21987;SDS011;11158;53.404;-1.510;2023-03-23T00:12:09;4.55;;;1.10;;
21987;SDS011;11158;53.404;-1.510;2023-03-23T00:14:55;8.50;;;2.03;;
21987;SDS011;11158;53.404;-1.510;2023-03-23T00:17:40;7.93;;;1.33;;
21987;SDS011;11158;53.404;-1.510;2023-03-23T00:20:24;5.70;;;1.23;;
21987;SDS011;11158;53.404;-1.510;2023-03-23T00:23:08;2.38;;;1.02;;
21987;SDS011;11158;53.404;-1.510;2023-03-23T00:25:55;4.57;;;1.30;;
21987;SDS011;11158;53.404;-1.510;2023-03-23T00:28:42;4.65;;;1.30;;
21987;SDS011;11158;53.404;-1.510;2023-03-23T00:31:27;4.13;;;1.00;;
21987;SDS011;11158;53.404;-1.510;2023-03-23T00:34:16;9.77;;;1.42;;
21987;SDS011;11158;53.404;-1.510;2023-03-23T00:37:04;2.88;;;1.10;;
21987;SDS011;11158;53.404;-1.510;2023-03-23T00:39:48;5.75;;;1.35;;
21987;SDS011;11158;53.404;-1.510;2023-03-23T00:42:32;10.32;;;1.45;;
21987;SDS011;11158;53.404;-1.510;2023-03-23T00:45:20;2.90;;;1.17;;
21987;SDS011;11158;53.404;-1.510;2023-03-23T00:48:05;6.65;;;1.13;;
21987;SDS011;11158;53.404;-1.510;2023-03-23T00:50:49;7.38;;;1.48;;
21987;SDS011;11158;53.404;-1.510;2023-03-23T00:53:35;3.22;;;1.25;;
21987;SDS011;11158;53.404;-1.510;2023-03-23T00:56:18;4.55;;;1.10;;
21987;SDS011;11158;53.404;-1.510;2023-03-23T00:59:03;4.13;;;1.30;;
21987;SDS011;11158;53.404;-1.510;2023-03-23T01:01:47;5.28;;;1.35;;
21987;SDS011;11158;53.404;-1.510;2023-03-23T01:04:32;6.32;;;1.58;;
21987;SDS011;11158;53.404;-1.510;2023-03-23T01:07:20;7.43;;;1.58;;
21987;SDS011;11158;53.404;-1.510;2023-03-23T01:10:07;4.95;;;1.77;;
21987;SDS011;11158;53.404;-1.510;2023-03-23T01:12:51;5.00;;;1.40;;
21987;SDS011;11158;53.404;-1.510;2023-03-23T01:15:36;6.97;;;1.83;;
21987;SDS011;11158;53.404;-1.510;2023-03-23T01:18:20;5.55;;;1.33;;
21987;SDS011;11158;53.404;-1.510;2023-03-23T01:21:05;4.15;;;1.25;;
21987;SDS011;11158;53.404;-1.510;2023-03-23T01:24:00;7.35;;;1.58;;
21987;SDS011;11158;53.404;-1.510;2023-03-23T01:26:44;6.03;;;1.30;;
21987;SDS011;11158;53.404;-1.510;2023-03-23T01:29:28;5.78;;;1.20;;
21987;SDS011;11158;53.404;-1.510;2023-03-23T01:32:13;7.68;;;1.67;;
21987;SDS011;11158;53.404;-1.510;2023-03-23T01:34:57;9.50;;;1.90;;
21987;SDS011;11158;53.404;-1.510;2023-03-23T01:37:41;5.38;;;1.63;;
21987;SDS011;11158;53.404;-1.510;2023-03-23T01:40:26;7.47;;;1.50;;
21987;SDS011;11158;53.404;-1.510;2023-03-23T01:43:12;7.72;;;1.52;;
21987;SDS011;11158;53.404;-1.510;2023-03-23T01:45:59;6.65;;;1.50;;
21987;SDS011;11158;53.404;-1.510;2023-03-23T01:48:43;7.38;;;1.50;;
21987;SDS011;11158;53.404;-1.510;2023-03-23T01:51:28;5.25;;;1.40;;
21987;SDS011;11158;53.404;-1.510;2023-03-23T01:54:14;11.40;;;1.58;;
21987;SDS011;11158;53.404;-1.510;2023-03-23T01:57:06;8.05;;;1.50;;
21987;SDS011;11158;53.404;-1.510;2023-03-23T01:59:58;5.28;;;1.00;;
21987;SDS011;11158;53.404;-1.510;2023-03-23T02:02:51;8.00;;;1.80;;
21987;SDS011;11158;53.404;-1.510;2023-03-23T02:05:37;5.57;;;1.70;;
21987;SDS011;11158;53.404;-1.510;2023-03-23T02:08:24;7.68;;;2.00;;
21987;SDS011;11158;53.404;-1.510;2023-03-23T02:11:15;9.93;;;1.90;;
21987;SDS011;11158;53.404;-1.510;2023-03-23T02:14:02;7.30;;;1.30;;
21987;SDS011;11158;53.404;-1.510;2023-03-23T02:17:00;8.85;;;2.05;;
21987;SDS011;11158;53.404;-1.510;2023-03-23T02:34:51;7.40;;;1.70;;
21987;SDS011;11158;53.404;-1.510;2023-03-23T02:37:49;8.45;;;1.50;;
21987;SDS011;11158;53.404;-1.510;2023-03-23T02:40:46;8.93;;;1.83;;
21987;SDS011;11158;53.404;-1.510;2023-03-23T02:43:33;7.25;;;2.08;;
21987;SDS011;11158;53.404;-1.510;2023-03-23T02:46:23;6.47;;;1.50;;
21987;SDS011;11158;53.404;-1.510;2023-03-23T02:49:09;6.18;;;1.35;;
21987;SDS011;11158;53.404;-1.510;2023-03-23T02:51:58;7.55;;;1.85;;
21987;SDS011;11158;53.404;-1.510;2023-03-23T02:54:46;7.13;;;1.30;;
21987;SDS011;11158;53.404;-1.510;2023-03-23T02:57:32;10.55;;;1.52;;
21987;SDS011;11158;53.404;-1.510;2023-03-23T03:00:18;8.30;;;1.42;;
21987;SDS011;11158;53.404;-1.510;2023-03-23T03:03:04;8.35;;;1.90;;
21987;SDS011;11158;53.404;-1.510;2023-03-23T03:06:34;10.70;;;1.60;;
21987;SDS011;11158;53.404;-1.510;2023-03-23T03:12:55;7.53;;;1.80;;
21987;SDS011;11158;53.404;-1.510;2023-03-23T03:15:56;8.18;;;1.70;;
21987;SDS011;11158;53.404;-1.510;2023-03-23T03:18:44;7.20;;;1.55;;
21987;SDS011;11158;53.404;-1.510;2023-03-23T03:21:36;10.50;;;2.40;;
21987;SDS011;11158;53.404;-1.510;2023-03-23T03:24:28;9.90;;;2.15;;
21987;SDS011;11158;53.404;-1.510;2023-03-23T03:27:15;7.80;;;1.85;;
21987;SDS011;11158;53.404;-1.510;2023-03-23T03:30:03;9.32;;;2.00;;
21987;SDS011;11158;53.404;-1.510;2023-03-23T03:32:51;7.85;;;1.83;;
21987;SDS011;11158;53.404;-1.510;2023-03-23T03:35:37;10.55;;;2.05;;
21987;SDS011;11158;53.404;-1.510;2023-03-23T03:38:25;8.45;;;2.45;;
21987;SDS011;11158;53.404;-1.510;2023-03-23T03:41:10;14.20;;;2.28;;
21987;SDS011;11158;53.404;-1.510;2023-03-23T03:43:55;10.18;;;2.58;;
21987;SDS011;11158;53.404;-1.510;2023-03-23T03:46:39;7.70;;;2.10;;
21987;SDS011;11158;53.404;-1.510;2023-03-23T03:49:23;16.20;;;2.28;;
21987;SDS011;11158;53.404;-1.510;2023-03-23T03:52:09;7.43;;;1.55;;
21987;SDS011;11158;53.404;-1.510;2023-03-23T03:54:54;11.13;;;1.85;;
21987;SDS011;11158;53.404;-1.510;2023-03-23T03:57:38;10.63;;;2.30;;
21987;SDS011;11158;53.404;-1.510;2023-03-23T04:00:22;13.57;;;2.60;;
21987;SDS011;11158;53.404;-1.510;2023-03-23T04:03:07;8.68;;;1.65;;
21987;SDS011;11158;53.404;-1.510;2023-03-23T04:05:55;12.05;;;2.22;;
21987;SDS011;11158;53.404;-1.510;2023-03-23T04:08:40;11.73;;;2.17;;
21987;SDS011;11158;53.404;-1.510;2023-03-23T04:11:25;10.02;;;1.88;;
21987;SDS011;11158;53.404;-1.510;2023-03-23T04:14:10;11.55;;;3.03;;
21987;SDS011;11158;53.404;-1.510;2023-03-23T04:16:54;14.00;;;3.22;;
21987;SDS011;11158;53.404;-1.510;2023-03-23T04:19:40;17.67;;;2.28;;
21987;SDS011;11158;53.404;-1.510;2023-03-23T04:22:24;13.68;;;2.08;;
21987;SDS011;11158;53.404;-1.510;2023-03-23T04:25:13;13.45;;;2.67;;
21987;SDS011;11158;53.404;-1.510;2023-03-23T04:27:58;15.55;;;2.78;;
21987;SDS011;11158;53.404;-1.510;2023-03-23T04:30:46;15.48;;;2.42;;
21987;SDS011;11158;53.404;-1.510;2023-03-23T04:33:32;10.38;;;2.17;;
21987;SDS011;11158;53.404;-1.510;2023-03-23T04:36:16;9.30;;;2.05;;
21987;SDS011;11158;53.404;-1.510;2023-03-23T04:39:00;12.93;;;2.92;;
21987;SDS011;11158;53.404;-1.510;2023-03-23T04:41:44;13.35;;;2.65;;
21987;SDS011;11158;53.404;-1.510;2023-03-23T04:44:29;11.85;;;1.98;;
21987;SDS011;11158;53.404;-1.510;2023-03-23T04:47:16;13.32;;;2.47;;
21987;SDS011;11158;53.404;-1.510;2023-03-23T04:50:01;13.48;;;2.90;;
21987;SDS011;11158;53.404;-1.510;2023-03-23T04:52:45;11.23;;;2.35;;
21987;SDS011;11158;53.404;-1.510;2023-03-23T04:55:33;11.90;;;2.67;;
21987;SDS011;11158;53.404;-1.510;2023-03-23T04:58:22;7.72;;;1.83;;
21987;SDS011;11158;53.404;-1.510;2023-03-23T05:01:08;16.10;;;2.55;;
21987;SDS011;11158;53.404;-1.510;2023-03-23T05:03:53;13.60;;;2.53;;
21987;SDS011;11158;53.404;-1.510;2023-03-23T05:06:37;17.25;;;3.88;;
21987;SDS011;11158;53.404;-1.510;2023-03-23T05:09:21;16.63;;;3.22;;
21987;SDS011;11158;53.404;-1.510;2023-03-23T05:12:09;15.80;;;2.75;;
21987;SDS011;11158;53.404;-1.510;2023-03-23T05:14:54;8.95;;;2.13;;
21987;SDS011;11158;53.404;-1.510;2023-03-23T05:17:38;13.07;;;2.83;;
21987;SDS011;11158;53.404;-1.510;2023-03-23T05:20:24;15.85;;;2.90;;
21987;SDS011;11158;53.404;-1.510;2023-03-23T05:23:09;12.73;;;3.05;;
21987;SDS011;11158;53.404;-1.510;2023-03-23T05:25:54;7.22;;;2.17;;
21987;SDS011;11158;53.404;-1.510;2023-03-23T05:28:39;18.77;;;2.42;;
21987;SDS011;11158;53.404;-1.510;2023-03-23T05:31:25;17.42;;;3.55;;
21987;SDS011;11158;53.404;-1.510;2023-03-23T05:34:10;14.30;;;3.28;;
21987;SDS011;11158;53.404;-1.510;2023-03-23T05:36:55;12.50;;;2.88;;
21987;SDS011;11158;53.404;-1.510;2023-03-23T05:39:41;13.65;;;2.83;;
21987;SDS011;11158;53.404;-1.510;2023-03-23T05:42:25;11.82;;;2.65;;
21987;SDS011;11158;53.404;-1.510;2023-03-23T05:45:09;13.02;;;3.47;;
21987;SDS011;11158;53.404;-1.510;2023-03-23T05:47:54;10.98;;;2.95;;
21987;SDS011;11158;53.404;-1.510;2023-03-23T05:50:40;12.15;;;2.80;;
21987;SDS011;11158;53.404;-1.510;2023-03-23T05:53:24;19.92;;;3.30;;
21987;SDS011;11158;53.404;-1.510;2023-03-23T05:56:09;17.20;;;2.80;;
21987;SDS011;11158;53.404;-1.510;2023-03-23T05:58:57;15.02;;;3.25;;
21987;SDS011;11158;53.404;-1.510;2023-03-23T06:01:42;15.82;;;2.53;;
21987;SDS011;11158;53.404;-1.510;2023-03-23T06:04:26;13.52;;;2.95;;
21987;SDS011;11158;53.404;-1.510;2023-03-23T06:07:11;13.77;;;2.70;;
21987;SDS011;11158;53.404;-1.510;2023-03-23T06:09:58;13.88;;;2.80;;
21987;SDS011;11158;53.404;-1.510;2023-03-23T06:12:42;12.38;;;3.63;;
21987;SDS011;11158;53.404;-1.510;2023-03-23T06:15:26;17.25;;;3.60;;
21987;SDS011;11158;53.404;-1.510;2023-03-23T06:18:13;17.60;;;3.15;;
21987;SDS011;11158;53.404;-1.510;2023-03-23T06:20:57;13.07;;;3.08;;
21987;SDS011;11158;53.404;-1.510;2023-03-23T06:23:41;16.70;;;3.15;;
21987;SDS011;11158;53.404;-1.510;2023-03-23T06:26:30;18.17;;;2.83;;
21987;SDS011;11158;53.404;-1.510;2023-03-23T06:29:17;17.85;;;3.50;;
21987;SDS011;11158;53.404;-1.510;2023-03-23T06:32:02;14.23;;;3.20;;
21987;SDS011;11158;53.404;-1.510;2023-03-23T06:34:48;17.83;;;3.58;;
21987;SDS011;11158;53.404;-1.510;2023-03-23T06:37:32;12.38;;;3.22;;
21987;SDS011;11158;53.404;-1.510;2023-03-23T06:40:16;12.93;;;2.80;;
21987;SDS011;11158;53.404;-1.510;2023-03-23T06:43:03;17.33;;;2.72;;
21987;SDS011;11158;53.404;-1.510;2023-03-23T06:45:47;17.90;;;3.70;;
21987;SDS011;11158;53.404;-1.510;2023-03-23T06:48:32;20.88;;;3.67;;
21987;SDS011;11158;53.404;-1.510;2023-03-23T06:51:17;18.50;;;3.60;;
21987;SDS011;11158;53.404;-1.510;2023-03-23T06:54:02;24.27;;;4.90;;
21987;SDS011;11158;53.404;-1.510;2023-03-23T06:56:46;14.02;;;3.40;;
21987;SDS011;11158;53.404;-1.510;2023-03-23T06:59:31;18.52;;;4.03;;
21987;SDS011;11158;53.404;-1.510;2023-03-23T07:02:15;17.17;;;3.58;;
21987;SDS011;11158;53.404;-1.510;2023-03-23T07:04:59;11.13;;;3.00;;
21987;SDS011;11158;53.404;-1.510;2023-03-23T07:07:43;15.57;;;3.60;;
21987;SDS011;11158;53.404;-1.510;2023-03-23T07:10:28;18.02;;;3.13;;
21987;SDS011;11158;53.404;-1.510;2023-03-23T07:13:12;15.60;;;2.95;;
21987;SDS011;11158;53.404;-1.510;2023-03-23T07:15:56;16.85;;;3.63;;
21987;SDS011;11158;53.404;-1.510;2023-03-23T07:18:41;20.17;;;3.30;;
21987;SDS011;11158;53.404;-1.510;2023-03-23T07:21:25;16.25;;;3.67;;
21987;SDS011;11158;53.404;-1.510;2023-03-23T07:24:11;18.95;;;3.33;;
21987;SDS011;11158;53.404;-1.510;2023-03-23T07:26:57;24.33;;;3.90;;
21987;SDS011;11158;53.404;-1.510;2023-03-23T07:29:42;15.88;;;3.58;;
21987;SDS011;11158;53.404;-1.510;2023-03-23T07:32:26;21.55;;;3.95;;
21987;SDS011;11158;53.404;-1.510;2023-03-23T07:35:11;16.17;;;3.28;;
21987;SDS011;11158;53.404;-1.510;2023-03-23T07:37:55;13.23;;;3.75;;
21987;SDS011;11158;53.404;-1.510;2023-03-23T07:40:40;17.80;;;3.67;;
21987;SDS011;11158;53.404;-1.510;2023-03-23T07:43:24;14.18;;;2.92;;
21987;SDS011;11158;53.404;-1.510;2023-03-23T07:46:08;16.45;;;4.20;;
21987;SDS011;11158;53.404;-1.510;2023-03-23T07:48:53;20.52;;;3.63;;
21987;SDS011;11158;53.404;-1.510;2023-03-23T07:51:36;17.08;;;3.38;;
21987;SDS011;11158;53.404;-1.510;2023-03-23T07:54:23;19.23;;;3.47;;
21987;SDS011;11158;53.404;-1.510;2023-03-23T07:57:08;15.93;;;2.47;;
21987;SDS011;11158;53.404;-1.510;2023-03-23T07:59:52;16.10;;;3.47;;
21987;SDS011;11158;53.404;-1.510;2023-03-23T08:02:36;19.52;;;2.90;;
21987;SDS011;11158;53.404;-1.510;2023-03-23T08:05:20;19.98;;;3.92;;
21987;SDS011;11158;53.404;-1.510;2023-03-23T08:08:05;16.25;;;4.07;;
21987;SDS011;11158;53.404;-1.510;2023-03-23T08:10:50;15.25;;;3.35;;
21987;SDS011;11158;53.404;-1.510;2023-03-23T08:13:35;16.35;;;3.58;;
21987;SDS011;11158;53.404;-1.510;2023-03-23T08:16:19;18.88;;;3.75;;
21987;SDS011;11158;53.404;-1.510;2023-03-23T08:19:03;12.55;;;3.03;;
21987;SDS011;11158;53.404;-1.510;2023-03-23T08:21:48;16.83;;;3.20;;
21987;SDS011;11158;53.404;-1.510;2023-03-23T08:24:33;13.02;;;2.92;;
21987;SDS011;11158;53.404;-1.510;2023-03-23T08:27:17;18.77;;;4.50;;
21987;SDS011;11158;53.404;-1.510;2023-03-23T08:30:03;12.48;;;3.08;;
21987;SDS011;11158;53.404;-1.510;2023-03-23T08:32:49;16.00;;;3.03;;
21987;SDS011;11158;53.404;-1.510;2023-03-23T08:35:34;17.40;;;3.05;;
21987;SDS011;11158;53.404;-1.510;2023-03-23T08:38:19;14.38;;;3.15;;
21987;SDS011;11158;53.404;-1.510;2023-03-23T08:41:05;12.48;;;2.83;;
21987;SDS011;11158;53.404;-1.510;2023-03-23T08:43:51;15.00;;;2.78;;
21987;SDS011;11158;53.404;-1.510;2023-03-23T08:46:36;20.00;;;3.97;;
21987;SDS011;11158;53.404;-1.510;2023-03-23T08:49:20;14.13;;;3.25;;
21987;SDS011;11158;53.404;-1.510;2023-03-23T08:52:04;13.27;;;3.33;;
21987;SDS011;11158;53.404;-1.510;2023-03-23T08:54:49;14.50;;;2.97;;
21987;SDS011;11158;53.404;-1.510;2023-03-23T08:57:34;15.50;;;2.92;;
21987;SDS011;11158;53.404;-1.510;2023-03-23T09:00:20;15.30;;;3.45;;
21987;SDS011;11158;53.404;-1.510;2023-03-23T09:03:08;12.88;;;3.40;;
21987;SDS011;11158;53.404;-1.510;2023-03-23T09:05:52;15.98;;;3.15;;
21987;SDS011;11158;53.404;-1.510;2023-03-23T09:08:37;11.18;;;3.15;;
21987;SDS011;11158;53.404;-1.510;2023-03-23T09:11:21;12.88;;;2.40;;
21987;SDS011;11158;53.404;-1.510;2023-03-23T09:14:06;18.05;;;3.75;;
21987;SDS011;11158;53.404;-1.510;2023-03-23T09:16:51;12.68;;;3.00;;
21987;SDS011;11158;53.404;-1.510;2023-03-23T09:19:36;17.35;;;3.50;;
21987;SDS011;11158;53.404;-1.510;2023-03-23T09:22:20;15.07;;;3.63;;
21987;SDS011;11158;53.404;-1.510;2023-03-23T09:25:07;15.88;;;3.47;;
21987;SDS011;11158;53.404;-1.510;2023-03-23T09:27:54;12.25;;;2.97;;
21987;SDS011;11158;53.404;-1.510;2023-03-23T09:30:40;13.68;;;3.08;;
21987;SDS011;11158;53.404;-1.510;2023-03-23T09:33:25;16.88;;;3.05;;
21987;SDS011;11158;53.404;-1.510;2023-03-23T09:36:11;14.57;;;3.13;;
21987;SDS011;11158;53.404;-1.510;2023-03-23T09:38:56;13.57;;;3.05;;
21987;SDS011;11158;53.404;-1.510;2023-03-23T09:57:18;10.25;;;2.72;;
21987;SDS011;11158;53.404;-1.510;2023-03-23T10:00:29;15.43;;;3.22;;
21987;SDS011;11158;53.404;-1.510;2023-03-23T10:03:19;12.48;;;3.53;;
21987;SDS011;11158;53.404;-1.510;2023-03-23T10:06:09;11.48;;;2.42;;
21987;SDS011;11158;53.404;-1.510;2023-03-23T10:08:57;13.50;;;2.92;;
21987;SDS011;11158;53.404;-1.510;2023-03-23T10:29:31;12.32;;;3.33;;
21987;SDS011;11158;53.404;-1.510;2023-03-23T10:32:23;9.60;;;2.63;;
21987;SDS011;11158;53.404;-1.510;2023-03-23T10:35:28;11.82;;;2.83;;
21987;SDS011;11158;53.404;-1.510;2023-03-23T10:38:21;13.20;;;3.25;;
21987;SDS011;11158;53.404;-1.510;2023-03-23T10:41:10;17.65;;;4.32;;
21987;SDS011;11158;53.404;-1.510;2023-03-23T10:43:55;12.93;;;2.67;;
21987;SDS011;11158;53.404;-1.510;2023-03-23T10:49:43;12.82;;;2.85;;
21987;SDS011;11158;53.404;-1.510;2023-03-23T10:52:33;10.60;;;2.65;;
21987;SDS011;11158;53.404;-1.510;2023-03-23T10:55:23;13.40;;;2.90;;
21987;SDS011;11158;53.404;-1.510;2023-03-23T10:58:11;14.00;;;2.95;;
21987;SDS011;11158;53.404;-1.510;2023-03-23T11:01:09;15.00;;;3.03;;
21987;SDS011;11158;53.404;-1.510;2023-03-23T11:03:56;13.15;;;3.13;;
21987;SDS011;11158;53.404;-1.510;2023-03-23T11:06:43;10.05;;;3.15;;
21987;SDS011;11158;53.404;-1.510;2023-03-23T11:09:37;9.70;;;2.40;;
21987;SDS011;11158;53.404;-1.510;2023-03-23T11:12:34;13.65;;;3.45;;
21987;SDS011;11158;53.404;-1.510;2023-03-23T11:15:27;12.13;;;2.70;;
21987;SDS011;11158;53.404;-1.510;2023-03-23T11:18:18;15.48;;;2.80;;
21987;SDS011;11158;53.404;-1.510;2023-03-23T11:21:04;12.35;;;2.80;;
21987;SDS011;11158;53.404;-1.510;2023-03-23T11:23:55;12.63;;;2.72;;
21987;SDS011;11158;53.404;-1.510;2023-03-23T11:26:43;13.75;;;2.97;;
21987;SDS011;11158;53.404;-1.510;2023-03-23T11:29:28;12.52;;;2.92;;
21987;SDS011;11158;53.404;-1.510;2023-03-23T11:32:14;15.60;;;2.80;;
21987;SDS011;11158;53.404;-1.510;2023-03-23T11:35:01;12.07;;;3.25;;
21987;SDS011;11158;53.404;-1.510;2023-03-23T11:37:49;18.60;;;3.08;;
21987;SDS011;11158;53.404;-1.510;2023-03-23T11:40:44;11.77;;;3.05;;
21987;SDS011;11158;53.404;-1.510;2023-03-23T11:43:34;14.05;;;3.30;;
21987;SDS011;11158;53.404;-1.510;2023-03-23T11:46:29;9.88;;;2.20;;
21987;SDS011;11158;53.404;-1.510;2023-03-23T11:55:26;5.35;;;1.48;;
21987;SDS011;11158;53.404;-1.510;2023-03-23T11:58:17;5.32;;;1.30;;
21987;SDS011;11158;53.404;-1.510;2023-03-23T12:01:04;3.60;;;1.70;;
21987;SDS011;11158;53.404;-1.510;2023-03-23T12:10:33;8.73;;;2.25;;
21987;SDS011;11158;53.404;-1.510;2023-03-23T12:13:34;10.63;;;2.90;;
21987;SDS011;11158;53.404;-1.510;2023-03-23T12:29:02;12.68;;;2.53;;
21987;SDS011;11158;53.404;-1.510;2023-03-23T12:38:01;11.20;;;2.67;;
21987;SDS011;11158;53.404;-1.510;2023-03-23T12:44:32;9.32;;;2.15;;
21987;SDS011;11158;53.404;-1.510;2023-03-23T12:53:55;6.97;;;1.15;;
21987;SDS011;11158;53.404;-1.510;2023-03-23T12:59:44;7.80;;;1.10;;
21987;SDS011;11158;53.404;-1.510;2023-03-23T13:02:59;4.13;;;1.40;;
21987;SDS011;11158;53.404;-1.510;2023-03-23T13:05:54;4.10;;;1.08;;
21987;SDS011;11158;53.404;-1.510;2023-03-23T13:08:48;7.13;;;1.70;;
21987;SDS011;11158;53.404;-1.510;2023-03-23T13:11:38;7.03;;;1.60;;
21987;SDS011;11158;53.404;-1.510;2023-03-23T13:17:52;9.80;;;2.15;;
21987;SDS011;11158;53.404;-1.510;2023-03-23T13:20:51;6.10;;;1.75;;
21987;SDS011;11158;53.404;-1.510;2023-03-23T13:23:45;7.60;;;2.30;;
21987;SDS011;11158;53.404;-1.510;2023-03-23T13:26:39;9.10;;;2.58;;
21987;SDS011;11158;53.404;-1.510;2023-03-23T13:29:26;11.02;;;2.10;;
21987;SDS011;11158;53.404;-1.510;2023-03-23T13:32:15;6.70;;;1.63;;
21987;SDS011;11158;53.404;-1.510;2023-03-23T13:35:02;7.50;;;2.30;;
21987;SDS011;11158;53.404;-1.510;2023-03-23T13:37:50;6.68;;;2.20;;
21987;SDS011;11158;53.404;-1.510;2023-03-23T13:40:36;3.38;;;1.20;;
21987;SDS011;11158;53.404;-1.510;2023-03-23T13:43:32;7.63;;;1.35;;
21987;SDS011;11158;53.404;-1.510;2023-03-23T13:51:52;12.48;;;1.95;;
21987;SDS011;11158;53.404;-1.510;2023-03-23T13:54:44;5.55;;;1.40;;
21987;SDS011;11158;53.404;-1.510;2023-03-23T14:03:25;8.43;;;2.63;;
21987;SDS011;11158;53.404;-1.510;2023-03-23T14:06:21;8.93;;;1.95;;
21987;SDS011;11158;53.404;-1.510;2023-03-23T14:09:16;5.93;;;1.77;;
21987;SDS011;11158;53.404;-1.510;2023-03-23T14:12:03;10.02;;;2.15;;
21987;SDS011;11158;53.404;-1.510;2023-03-23T14:14:56;9.27;;;2.15;;
21987;SDS011;11158;53.404;-1.510;2023-03-23T14:17:47;10.18;;;2.25;;
21987;SDS011;11158;53.404;-1.510;2023-03-23T14:20:36;8.57;;;1.98;;
21987;SDS011;11158;53.404;-1.510;2023-03-23T14:23:23;6.05;;;1.75;;
21987;SDS011;11158;53.404;-1.510;2023-03-23T14:26:16;6.85;;;1.77;;
21987;SDS011;11158;53.404;-1.510;2023-03-23T14:29:02;4.28;;;1.40;;
21987;SDS011;11158;53.404;-1.510;2023-03-23T14:31:50;6.57;;;1.48;;
21987;SDS011;11158;53.404;-1.510;2023-03-23T14:34:38;10.18;;;1.75;;
21987;SDS011;11158;53.404;-1.510;2023-03-23T14:37:23;5.68;;;1.95;;
21987;SDS011;11158;53.404;-1.510;2023-03-23T14:40:10;7.32;;;2.08;;
21987;SDS011;11158;53.404;-1.510;2023-03-23T14:42:58;7.13;;;2.03;;
21987;SDS011;11158;53.404;-1.510;2023-03-23T14:45:43;8.32;;;2.00;;
21987;SDS011;11158;53.404;-1.510;2023-03-23T14:48:28;9.07;;;2.33;;
21987;SDS011;11158;53.404;-1.510;2023-03-23T14:51:19;10.32;;;2.10;;
21987;SDS011;11158;53.404;-1.510;2023-03-23T14:54:07;8.40;;;1.95;;
21987;SDS011;11158;53.404;-1.510;2023-03-23T14:56:52;12.95;;;2.38;;
21987;SDS011;11158;53.404;-1.510;2023-03-23T14:59:39;10.40;;;2.30;;
21987;SDS011;11158;53.404;-1.510;2023-03-23T15:02:30;9.80;;;2.33;;
21987;SDS011;11158;53.404;-1.510;2023-03-23T15:05:21;6.30;;;1.65;;
21987;SDS011;11158;53.404;-1.510;2023-03-23T15:13:51;7.55;;;1.60;;
21987;SDS011;11158;53.404;-1.510;2023-03-23T15:16:45;10.27;;;2.42;;
21987;SDS011;11158;53.404;-1.510;2023-03-23T15:19:37;9.07;;;1.80;;
21987;SDS011;11158;53.404;-1.510;2023-03-23T15:22:29;10.68;;;2.50;;
21987;SDS011;11158;53.404;-1.510;2023-03-23T15:25:19;8.55;;;2.83;;
21987;SDS011;11158;53.404;-1.510;2023-03-23T15:28:29;8.73;;;2.05;;
21987;SDS011;11158;53.404;-1.510;2023-03-23T15:31:15;6.75;;;1.40;;
21987;SDS011;11158;53.404;-1.510;2023-03-23T15:34:01;10.82;;;2.20;;
21987;SDS011;11158;53.404;-1.510;2023-03-23T15:36:50;8.63;;;2.15;;
21987;SDS011;11158;53.404;-1.510;2023-03-23T15:39:40;6.47;;;1.73;;
21987;SDS011;11158;53.404;-1.510;2023-03-23T15:42:29;10.65;;;1.88;;
21987;SDS011;11158;53.404;-1.510;2023-03-23T15:45:19;6.30;;;1.80;;
21987;SDS011;11158;53.404;-1.510;2023-03-23T15:48:11;7.65;;;1.67;;
21987;SDS011;11158;53.404;-1.510;2023-03-23T15:50:56;8.57;;;2.28;;
21987;SDS011;11158;53.404;-1.510;2023-03-23T15:53:41;6.47;;;1.52;;
21987;SDS011;11158;53.404;-1.510;2023-03-23T15:56:26;6.13;;;1.55;;
21987;SDS011;11158;53.404;-1.510;2023-03-23T15:59:10;8.18;;;1.70;;
21987;SDS011;11158;53.404;-1.510;2023-03-23T16:01:55;9.50;;;1.70;;
21987;SDS011;11158;53.404;-1.510;2023-03-23T16:04:40;14.90;;;2.25;;
21987;SDS011;11158;53.404;-1.510;2023-03-23T16:07:24;8.50;;;2.33;;
21987;SDS011;11158;53.404;-1.510;2023-03-23T16:10:14;13.70;;;2.40;;
21987;SDS011;11158;53.404;-1.510;2023-03-23T16:13:02;12.63;;;2.08;;
21987;SDS011;11158;53.404;-1.510;2023-03-23T16:15:48;7.10;;;2.38;;
21987;SDS011;11158;53.404;-1.510;2023-03-23T16:18:33;11.80;;;3.10;;
21987;SDS011;11158;53.404;-1.510;2023-03-23T16:21:17;10.20;;;2.42;;
21987;SDS011;11158;53.404;-1.510;2023-03-23T16:24:02;12.60;;;3.03;;
21987;SDS011;11158;53.404;-1.510;2023-03-23T16:26:46;14.70;;;2.60;;
21987;SDS011;11158;53.404;-1.510;2023-03-23T16:29:30;7.78;;;1.88;;
21987;SDS011;11158;53.404;-1.510;2023-03-23T16:32:14;13.65;;;2.92;;
21987;SDS011;11158;53.404;-1.510;2023-03-23T16:34:58;14.77;;;2.75;;
21987;SDS011;11158;53.404;-1.510;2023-03-23T16:37:43;10.63;;;2.80;;
21987;SDS011;11158;53.404;-1.510;2023-03-23T16:40:28;12.63;;;3.65;;
21987;SDS011;11158;53.404;-1.510;2023-03-23T16:43:12;10.32;;;2.25;;
21987;SDS011;11158;53.404;-1.510;2023-03-23T16:45:56;8.25;;;2.45;;
21987;SDS011;11158;53.404;-1.510;2023-03-23T16:48:40;15.85;;;3.40;;
21987;SDS011;11158;53.404;-1.510;2023-03-23T16:51:24;15.32;;;3.35;;
21987;SDS011;11158;53.404;-1.510;2023-03-23T16:54:09;11.75;;;2.63;;
21987;SDS011;11158;53.404;-1.510;2023-03-23T16:56:53;15.45;;;2.95;;
21987;SDS011;11158;53.404;-1.510;2023-03-23T16:59:38;12.73;;;2.55;;
21987;SDS011;11158;53.404;-1.510;2023-03-23T17:02:22;11.13;;;2.60;;
21987;SDS011;11158;53.404;-1.510;2023-03-23T17:05:06;9.10;;;2.33;;
21987;SDS011;11158;53.404;-1.510;2023-03-23T17:07:51;12.35;;;2.78;;
21987;SDS011;11158;53.404;-1.510;2023-03-23T17:10:38;9.63;;;2.85;;
21987;SDS011;11158;53.404;-1.510;2023-03-23T17:13:23;11.25;;;2.35;;
21987;SDS011;11158;53.404;-1.510;2023-03-23T17:16:10;12.50;;;2.83;;
21987;SDS011;11158;53.404;-1.510;2023-03-23T17:18:55;10.73;;;2.60;;
21987;SDS011;11158;53.404;-1.510;2023-03-23T17:21:39;12.80;;;2.85;;
21987;SDS011;11158;53.404;-1.510;2023-03-23T17:24:24;10.95;;;2.65;;
21987;SDS011;11158;53.404;-1.510;2023-03-23T17:27:09;11.02;;;2.63;;
21987;SDS011;11158;53.404;-1.510;2023-03-23T17:29:54;15.27;;;2.40;;
21987;SDS011;11158;53.404;-1.510;2023-03-23T17:32:38;8.07;;;2.33;;
21987;SDS011;11158;53.404;-1.510;2023-03-23T17:35:22;19.83;;;3.60;;
21987;SDS011;11158;53.404;-1.510;2023-03-23T17:38:06;12.38;;;3.03;;
21987;SDS011;11158;53.404;-1.510;2023-03-23T17:40:57;10.00;;;2.85;;
21987;SDS011;11158;53.404;-1.510;2023-03-23T17:43:42;12.52;;;3.28;;
21987;SDS011;11158;53.404;-1.510;2023-03-23T17:46:26;11.40;;;3.30;;
21987;SDS011;11158;53.404;-1.510;2023-03-23T17:49:11;12.57;;;2.97;;
21987;SDS011;11158;53.404;-1.510;2023-03-23T17:51:56;11.93;;;3.15;;
21987;SDS011;11158;53.404;-1.510;2023-03-23T17:54:41;12.88;;;3.58;;
21987;SDS011;11158;53.404;-1.510;2023-03-23T17:57:25;12.43;;;3.47;;
21987;SDS011;11158;53.404;-1.510;2023-03-23T18:00:10;13.38;;;3.42;;
21987;SDS011;11158;53.404;-1.510;2023-03-23T18:02:55;13.07;;;3.42;;
21987;SDS011;11158;53.404;-1.510;2023-03-23T18:05:39;11.80;;;3.08;;
21987;SDS011;11158;53.404;-1.510;2023-03-23T18:08:23;15.05;;;2.40;;
21987;SDS011;11158;53.404;-1.510;2023-03-23T18:11:11;9.65;;;2.60;;
21987;SDS011;11158;53.404;-1.510;2023-03-23T18:13:55;7.47;;;2.47;;
21987;SDS011;11158;53.404;-1.510;2023-03-23T18:16:39;10.30;;;2.95;;
21987;SDS011;11158;53.404;-1.510;2023-03-23T18:19:23;12.57;;;3.00;;
21987;SDS011;11158;53.404;-1.510;2023-03-23T18:22:07;9.35;;;2.05;;